createdAt,value
2023-01-12T00:02:36.833Z,100679.56
2023-01-12T00:07:39.008Z,100711.16
2023-01-12T00:12:41.143Z,100656.97
2023-01-12T00:17:43.195Z,100703.28
2023-01-12T00:22:49.953Z,100683.69
2023-01-12T00:27:52.023Z,100681.88
2023-01-12T00:38:19.730Z,100703.69
2023-01-12T00:43:40.158Z,100705.63
2023-01-12T00:48:42.366Z,100709.63
2023-01-12T00:53:44.428Z,100706.44
2023-01-12T00:58:47.467Z,100729.75
2023-01-12T01:03:49.625Z,100696.59
2023-01-12T01:08:52.032Z,100721.84
2023-01-12T01:13:54.941Z,100702.19
2023-01-12T01:18:58.565Z,100688.88
2023-01-12T01:24:01.064Z,100681.34
2023-01-12T01:29:03.229Z,100727.19
2023-01-12T01:34:05.358Z,100717.28
2023-01-12T01:39:07.517Z,100711.56
2023-01-12T01:44:31.279Z,100732.19
2023-01-12T01:49:51.923Z,100724.94
2023-01-12T01:54:59.799Z,100715.28
2023-01-12T02:00:06.327Z,100737.09
2023-01-12T02:05:09.601Z,100709.34
2023-01-12T02:10:11.913Z,100720.69
2023-01-12T02:15:52.471Z,100705.28
2023-01-12T02:21:21.146Z,100743.09
2023-01-12T02:26:44.701Z,100750.75
2023-01-12T02:32:29.243Z,100752.06
2023-01-12T02:38:02.219Z,100754.53
2023-01-12T02:43:40.520Z,100761.34
2023-01-12T02:49:07.897Z,100741.06
2023-01-12T02:54:17.436Z,100736.25
2023-01-12T02:59:25.092Z,100747.75
2023-01-12T03:04:28.558Z,100740.00
2023-01-12T03:09:44.359Z,100754.53
2023-01-12T03:14:49.446Z,100744.09
2023-01-12T03:19:55.123Z,100739.16
2023-01-12T03:25:02.603Z,100741.06
2023-01-12T03:30:11.340Z,100728.34
2023-01-12T03:35:14.219Z,100719.56
2023-01-12T03:40:23.606Z,100745.31
2023-01-12T03:45:45.920Z,100747.16
2023-01-12T03:50:53.698Z,100748.81
2023-01-12T03:56:00.031Z,100747.66
2023-01-12T04:01:03.703Z,100709.97
2023-01-12T04:06:06.184Z,100718.56
2023-01-12T04:11:27.530Z,100734.69
2023-01-12T04:16:29.802Z,100772.78
2023-01-12T04:21:50.297Z,100765.53
2023-01-12T04:26:52.619Z,100747.47
2023-01-12T04:31:54.841Z,100763.00
2023-01-12T04:36:57.096Z,100762.31
2023-01-12T04:41:59.214Z,100738.66
2023-01-12T04:47:01.272Z,100760.59
2023-01-12T04:52:03.463Z,100771.78
2023-01-12T04:57:05.519Z,100770.09
2023-01-12T05:02:07.699Z,100781.94
2023-01-12T05:07:09.797Z,100788.72
2023-01-12T05:12:12.024Z,100763.75
2023-01-12T05:17:14.067Z,100751.88
2023-01-12T05:22:16.603Z,100808.75
2023-01-12T05:27:19.000Z,100804.56
2023-01-12T05:32:21.119Z,100826.50
2023-01-12T05:37:23.200Z,100823.31
2023-01-12T05:42:43.596Z,100777.97
2023-01-12T05:47:45.863Z,100803.34
2023-01-12T05:52:52.137Z,100819.78
2023-01-12T05:57:54.319Z,100780.63
2023-01-12T06:02:56.653Z,100822.81
2023-01-12T06:07:59.654Z,100785.66
2023-01-12T06:13:20.221Z,100809.50
2023-01-12T06:18:23.259Z,100818.63
2023-01-12T06:23:35.334Z,100826.72
2023-01-12T06:28:39.654Z,100856.28
2023-01-12T06:33:42.363Z,100864.69
2023-01-12T06:38:44.510Z,100828.56
2023-01-12T06:43:46.961Z,100852.31
2023-01-12T06:48:49.125Z,100850.53
2023-01-12T06:53:51.473Z,100885.25
2023-01-12T06:58:53.582Z,100866.69
2023-01-12T07:03:55.760Z,100876.66
2023-01-12T07:08:57.887Z,100882.25
2023-01-12T07:14:00.145Z,100848.66
2023-01-12T07:19:02.393Z,100864.78
2023-01-12T07:24:04.564Z,100873.75
2023-01-12T07:29:06.770Z,100871.66
2023-01-12T07:34:08.934Z,100880.03
2023-01-12T07:39:13.256Z,100885.25
2023-01-12T07:44:15.343Z,100905.91
2023-01-12T07:49:17.507Z,100899.91
2023-01-12T07:54:19.649Z,100899.50
2023-01-12T07:59:21.714Z,100874.56
2023-01-12T08:04:23.869Z,100887.69
2023-01-12T08:09:26.630Z,100902.78
2023-01-12T08:14:33.983Z,100891.78
2023-01-12T08:19:45.800Z,100899.19
2023-01-12T08:24:56.998Z,100904.84
2023-01-12T08:30:00.435Z,100909.50
2023-01-12T08:35:04.475Z,100884.91
2023-01-12T08:40:07.867Z,100914.00
2023-01-12T08:45:10.498Z,100910.31
2023-01-12T08:50:12.837Z,100911.72
2023-01-12T08:55:14.952Z,100873.13
2023-01-12T09:00:17.865Z,100903.22
2023-01-12T09:05:20.073Z,100892.03
2023-01-12T09:10:22.159Z,100914.50
2023-01-12T09:15:24.324Z,100923.63
2023-01-12T09:20:26.525Z,100922.44
2023-01-12T09:25:28.601Z,100915.72
2023-01-12T09:30:30.737Z,100910.34
2023-01-12T09:35:32.821Z,100893.16
2023-01-12T09:40:35.930Z,100908.19
2023-01-12T12:40:10.731Z,100762.81
2023-01-12T12:45:21.787Z,100724.81
2023-01-12T12:50:44.469Z,100730.53
2023-01-12T12:55:49.216Z,100720.13
2023-01-12T13:00:53.368Z,100751.56
2023-01-12T13:06:16.667Z,100761.44
2023-01-12T13:11:20.376Z,100742.09
2023-01-12T13:16:22.493Z,100753.50
2023-01-12T13:21:27.696Z,100760.16
2023-01-12T13:26:35.724Z,100755.16
2023-01-12T13:31:37.918Z,100758.03
2023-01-12T13:36:40.139Z,100733.91
2023-01-12T13:42:02.102Z,100739.50
2023-01-12T13:47:16.917Z,100763.81
2023-01-12T13:52:34.409Z,100774.72
2023-01-12T13:57:36.621Z,100764.47
2023-01-12T14:02:40.765Z,100774.84
2023-01-12T14:07:58.931Z,100765.94
2023-01-12T14:13:10.720Z,100768.91
2023-01-12T14:18:28.218Z,100768.25
2023-01-12T14:23:33.845Z,100747.16
2023-01-12T14:28:37.153Z,100738.09
2023-01-12T14:33:41.254Z,100773.66
2023-01-12T14:38:44.752Z,100779.38
2023-01-12T14:44:05.488Z,100763.75
2023-01-12T14:49:31.161Z,100765.03
2023-01-12T14:54:34.662Z,100751.13
2023-01-12T14:59:44.005Z,100772.72
2023-01-12T15:04:59.743Z,100781.34
2023-01-12T15:10:24.627Z,100775.59
2023-01-12T15:15:49.513Z,100702.41
2023-01-12T15:21:10.062Z,100770.59
2023-01-12T15:26:12.188Z,100792.97
2023-01-12T15:31:25.586Z,100793.91
2023-01-12T15:36:28.080Z,100789.56
2023-01-12T15:41:50.593Z,100798.56
2023-01-12T15:46:53.506Z,100771.44
2023-01-12T15:51:55.798Z,100796.91
2023-01-12T15:56:59.936Z,100782.69
2023-01-12T16:02:02.372Z,100803.59
2023-01-12T16:07:05.612Z,100770.72
2023-01-12T16:12:08.267Z,100777.59
2023-01-12T16:17:10.616Z,100750.75
2023-01-12T16:22:21.431Z,100731.50
2023-01-12T16:27:26.745Z,100735.50
2023-01-12T16:32:29.053Z,100814.56
2023-01-12T16:37:33.694Z,100794.91
2023-01-12T16:42:36.037Z,100753.03
2023-01-12T16:47:38.800Z,100849.47
2023-01-12T16:52:41.141Z,100821.28
2023-01-12T16:57:43.515Z,100788.91
2023-01-12T17:02:45.895Z,100792.59
2023-01-12T17:07:49.268Z,100868.22
2023-01-12T17:12:58.340Z,100785.69
2023-01-12T17:18:03.461Z,100871.34
2023-01-12T17:23:06.051Z,100854.63
2023-01-12T17:28:08.656Z,100875.72
2023-01-12T17:33:10.994Z,100859.81
2023-01-12T17:38:13.290Z,100871.84
2023-01-12T17:43:15.485Z,100890.41
2023-01-12T17:48:20.646Z,100901.09
2023-01-12T17:53:22.992Z,100888.53
2023-01-12T17:58:25.119Z,100924.16
2023-01-12T18:03:27.310Z,100919.47
2023-01-12T18:08:29.593Z,100908.44
2023-01-12T18:13:32.235Z,100930.44
2023-01-12T18:18:34.608Z,100924.94
2023-01-12T18:23:39.149Z,100933.47
2023-01-12T18:28:42.366Z,100918.41
2023-01-12T18:33:45.827Z,100944.84
2023-01-12T18:38:49.896Z,100929.97
2023-01-12T18:43:52.504Z,100900.13
2023-01-12T18:48:54.756Z,100918.72
2023-01-12T18:53:57.244Z,100935.94
2023-01-12T18:58:59.362Z,100942.31
2023-01-12T19:04:03.044Z,100949.88
2023-01-12T19:09:23.837Z,100947.69
2023-01-12T19:14:44.434Z,100943.69
2023-01-12T19:19:46.616Z,100953.38
2023-01-12T19:25:07.396Z,100915.41
2023-01-12T19:30:10.650Z,100953.72
2023-01-12T19:35:12.933Z,100951.38
2023-01-12T19:40:47.721Z,100956.59
2023-01-12T19:45:58.881Z,100934.13
2023-01-12T19:51:09.495Z,100955.06
2023-01-12T19:56:13.522Z,100965.75
2023-01-12T20:01:23.460Z,100936.56
2023-01-12T20:06:25.684Z,100983.81
2023-01-12T20:11:28.048Z,100952.13
2023-01-12T20:16:30.364Z,100932.16
2023-01-12T20:21:32.511Z,100969.16
2023-01-12T20:26:34.599Z,100967.78
2023-01-12T20:31:36.807Z,100964.63
2023-01-12T20:36:40.190Z,100950.13
2023-01-12T20:41:43.545Z,100967.88
2023-01-12T20:46:46.202Z,100969.44
2023-01-12T20:51:49.853Z,100958.13
2023-01-12T20:56:52.053Z,100969.69
2023-01-12T21:01:54.192Z,100979.03
2023-01-12T21:06:57.135Z,100959.16
2023-01-12T21:11:59.416Z,100945.53
2023-01-12T21:17:02.794Z,100983.72
2023-01-12T21:22:04.911Z,100964.75
2023-01-12T21:27:07.526Z,100974.06
2023-01-12T21:32:09.697Z,100955.34
2023-01-12T21:37:12.209Z,100966.47
2023-01-12T21:42:33.509Z,100969.31
2023-01-12T21:47:35.961Z,100974.50
2023-01-12T21:52:38.192Z,100990.38
2023-01-12T21:57:42.086Z,100994.53
2023-01-12T22:02:44.322Z,100980.13
2023-01-12T22:07:48.216Z,100957.19
2023-01-12T22:12:54.366Z,100978.09
2023-01-12T22:17:56.737Z,100979.59
2023-01-12T22:22:58.897Z,100972.22
2023-01-12T22:28:01.155Z,100947.31
2023-01-12T22:33:03.291Z,100956.81
2023-01-12T22:38:06.465Z,100971.75
2023-01-12T22:43:28.528Z,100990.03
2023-01-12T22:48:30.606Z,100938.00
2023-01-12T22:53:33.163Z,100956.41
2023-01-12T22:58:38.206Z,100982.53
2023-01-12T23:03:40.348Z,100983.91
2023-01-12T23:08:44.919Z,100976.41
2023-01-12T23:13:47.342Z,100967.94
2023-01-12T23:18:50.629Z,100961.47
2023-01-12T23:23:54.791Z,100962.34
2023-01-12T23:29:00.587Z,100961.97
2023-01-12T23:34:02.910Z,100936.06
2023-01-12T23:39:06.441Z,100964.06
2023-01-12T23:44:10.232Z,100953.81
2023-01-12T23:49:12.301Z,100943.84
2023-01-12T23:54:17.613Z,100964.88
2023-01-12T23:59:19.946Z,100948.25
